Terminal Aerodrome Forecast
Issued by NWS

Home | Current Version | Previous Version | Text Only | Print | Product List | Glossary Off
Versions: 1 2 3 4 5 6 7 8 9 10 11 12 13 14 15 16

000
FTUS42 KMHX 062354
TAFPGV
TAF
KPGV 062354Z 0700/0724 31006KT P6SM OVC007
     FM070600 29009KT 5SM BR SCT003 OVC005
     FM071400 34006KT P6SM SCT020
     FM072000 VRB03KT P6SM BKN020
      AMD LTD TO CLD VIS AND WIND=

USA.gov is the U.S. government's official web portal to all federal, state and local government web resources and services.